Time;durP1;ratioP1;P1;durP2;ratioP2;P2;SDS_P1;SDS_P2;PMS_P1;PMS_P2;Temp;Humidity;BMP_temperature;BMP_pressure;BME280_temperature;BME280_humidity;BME280_pressure;Samples;Min_cycle;Max_cycle;Signal;HPM_P1;HPM_P2
2023/09/16 00:00:32;;;;;;;8.68;5.55;;;;;;;26.45;50.71;96681.97;6127470;23;20020;-28
2023/09/16 00:16:24;;;;;;;8.95;4.93;;;;;;;26.89;49.93;96690.94;6125493;23;20345;-28
2023/09/16 00:32:17;;;;;;;5.20;4.70;;;;;;;26.60;51.29;96678.69;6126995;23;20068;-29
2023/09/16 00:45:26;;;;;;;7.90;4.97;;;;;;;26.77;51.07;96668.84;6126657;23;20016;-28
2023/09/16 00:47:51;;;;;;;8.20;5.57;;;;;;;26.76;50.80;96675.69;6126293;23;20009;-28
2023/09/16 00:50:17;;;;;;;10.68;5.55;;;;;;;26.55;51.69;96674.75;6127097;23;20332;-28
2023/09/16 00:52:49;;;;;;;9.15;6.00;;;;;;;26.78;51.09;96675.91;6126758;23;19998;-28
2023/09/16 01:01:59;;;;;;;7.43;5.78;;;;;;;26.69;50.97;96687.44;6126477;23;20017;-28
2023/09/16 01:31:44;;;;;;;9.05;6.35;;;;;;;26.60;51.78;96673.13;6126167;23;20060;-28
2023/09/16 01:47:37;;;;;;;9.10;6.63;;;;;;;26.63;51.79;96664.50;6126166;23;20029;-28
2023/09/16 02:16:57;;;;;;;8.93;6.43;;;;;;;26.51;51.44;96677.06;6125088;23;20057;-28
2023/09/16 02:32:49;;;;;;;10.75;7.68;;;;;;;26.41;52.09;96673.91;6125815;23;20017;-28
2023/09/16 02:35:16;;;;;;;11.93;6.20;;;;;;;26.50;52.04;96674.81;6126496;23;20347;-28
2023/09/16 02:47:47;;;;;;;10.23;7.00;;;;;;;26.33;52.43;96684.16;6125389;23;20013;-28
2023/09/16 03:03:40;;;;;;;11.13;6.70;;;;;;;26.29;52.57;96703.16;6125729;23;20017;-28
2023/09/16 03:34:23;;;;;;;12.10;6.93;;;;;;;26.41;52.25;96703.75;6098015;23;20045;-28
2023/09/16 03:47:30;;;;;;;12.13;7.63;;;;;;;26.28;52.45;96700.88;6098141;23;20021;-28
2023/09/16 04:03:23;;;;;;;9.52;7.57;;;;;;;26.41;52.26;96715.63;6097712;23;20061;-28
2023/09/16 04:19:15;;;;;;;9.50;7.60;;;;;;;26.27;52.63;96702.13;6121463;23;20037;-27
2023/09/16 04:49:19;;;;;;;10.30;7.15;;;;;;;26.31;52.99;96680.38;6126880;23;20045;-28
2023/09/16 05:05:14;;;;;;;12.30;8.75;;;;;;;26.41;52.56;96675.94;6126315;23;20021;-28
2023/09/16 05:36:04;;;;;;;11.82;9.65;;;;;;;26.31;52.72;96713.75;6126484;23;20388;-28
2023/09/16 05:49:06;;;;;;;12.30;9.18;;;;;;;26.34;52.46;96709.91;6126511;23;20016;-28
2023/09/16 06:05:29;;;;;;;12.02;9.90;;;;;;;26.35;52.56;96708.63;6126250;23;20470;-28
2023/09/16 06:21:21;;;;;;;10.82;8.38;;;;;;;26.23;53.66;96716.31;6124660;23;20025;-28
2023/09/16 06:34:29;;;;;;;13.13;9.10;;;;;;;26.40;52.64;96710.59;6126129;23;20012;-29
2023/09/16 06:36:54;;;;;;;10.55;8.48;;;;;;;26.38;52.59;96702.75;6125622;23;20006;-28
2023/09/16 06:49:43;;;;;;;11.48;8.35;;;;;;;26.41;53.35;96703.75;6125764;23;20013;-28
2023/09/16 07:05:35;;;;;;;10.63;7.97;;;;;;;26.20;53.83;96697.19;6125777;23;20447;-28
2023/09/16 07:21:27;;;;;;;13.65;9.27;;;;;;;26.33;52.88;96725.09;6124010;23;20093;-28
2023/09/16 07:37:19;;;;;;;9.40;7.47;;;;;;;26.12;53.55;96753.34;6125654;23;20068;-28
2023/09/16 07:50:24;;;;;;;11.80;7.10;;;;;;;26.29;53.29;96738.53;6125422;23;20013;-28
2023/09/16 08:06:16;;;;;;;9.25;6.72;;;;;;;26.39;53.57;96761.91;6126800;23;20025;-28
2023/09/16 08:22:08;;;;;;;9.82;6.05;;;;;;;26.52;53.55;96762.00;6125673;23;20028;-28
2023/09/16 08:38:01;;;;;;;9.70;6.70;;;;;;;26.82;52.27;96745.19;6126782;23;20016;-28
2023/09/16 08:51:05;;;;;;;8.32;6.45;;;;;;;26.81;52.33;96768.72;6127172;23;20016;-28
2023/09/16 09:07:00;;;;;;;9.27;7.35;;;;;;;27.12;51.00;96781.19;6126310;23;20016;-28
2023/09/16 09:22:53;;;;;;;9.52;6.07;;;;;;;27.40;50.35;96791.91;6125161;23;20029;-28
2023/09/16 09:53:07;;;;;;;13.38;7.60;;;;;;;27.63;49.20;96797.88;6125973;23;20021;-28
2023/09/16 10:22:25;;;;;;;9.75;5.32;;;;;;;27.48;49.79;96810.25;6124632;23;20032;-28
2023/09/16 10:38:20;;;;;;;10.25;5.15;;;;;;;27.36;49.83;96808.91;6125808;23;20084;-28
2023/09/16 10:40:46;;;;;;;8.02;4.68;;;;;;;27.39;50.05;96801.53;6125933;23;20029;-28
2023/09/16 10:43:13;;;;;;;9.40;5.05;;;;;;;27.44;49.64;96801.47;6125901;23;20058;-28
2023/09/16 10:45:41;;;;;;;8.73;4.85;;;;;;;27.61;49.75;96800.44;6125982;23;20006;-28
2023/09/16 11:08:17;;;;;;;7.47;4.60;;;;;;;27.38;50.28;96805.59;6126598;23;20463;-28
2023/09/16 11:24:11;;;;;;;8.32;5.07;;;;;;;27.67;49.24;96813.03;6124411;23;20470;-28
2023/09/16 11:40:08;;;;;;;11.63;5.93;;;;;;;27.61;49.29;96806.03;6126002;23;20097;-28
2023/09/16 11:53:09;;;;;;;10.02;5.43;;;;;;;27.43;50.62;96804.78;6127351;23;20138;-28
2023/09/16 12:09:27;;;;;;;9.35;5.40;;;;;;;27.35;51.34;96810.19;6127215;23;20039;-28
2023/09/16 12:25:20;;;;;;;7.95;5.10;;;;;;;27.48;51.61;96806.69;6125961;23;20352;-28
2023/09/16 12:38:44;;;;;;;7.15;4.43;;;;;;;27.44;52.28;96801.47;6126791;23;20032;-28
2023/09/16 12:54:37;;;;;;;6.82;6.13;;;;;;;27.40;52.31;96792.66;6126622;23;20025;-28
2023/09/16 12:57:03;;;;;;;7.45;6.47;;;;;;;27.48;52.22;96785.19;6100798;23;20289;-28
2023/09/16 13:09:35;;;;;;;7.78;6.38;;;;;;;27.35;52.71;96790.69;6126765;23;20404;-28
2023/09/16 13:25:43;;;;;;;8.20;6.70;;;;;;;27.24;53.69;96773.41;6124997;23;20028;-28
2023/09/16 13:41:36;;;;;;;7.47;6.65;;;;;;;27.35;52.21;96737.78;6125711;23;20021;-28
2023/09/16 13:54:35;;;;;;;8.40;6.47;;;;;;;27.30;52.31;96741.44;6126586;23;20450;-28
2023/09/16 14:10:30;;;;;;;6.75;5.50;;;;;;;27.44;51.04;96728.28;6126109;23;20024;-28
2023/09/16 14:26:22;;;;;;;7.80;5.80;;;;;;;27.24;49.90;96723.28;6124376;23;20572;-28
2023/09/16 14:42:18;;;;;;;7.47;5.28;;;;;;;27.27;48.70;96723.00;6125904;23;20017;-28
2023/09/16 14:55:20;;;;;;;7.38;4.82;;;;;;;27.32;48.15;96741.66;6125698;23;20348;-28
2023/09/16 15:11:38;;;;;;;6.55;4.55;;;;;;;27.30;47.42;96727.50;6125781;23;20040;-28
2023/09/16 15:27:36;;;;;;;7.43;4.88;;;;;;;27.53;47.78;96720.28;6126513;23;20089;-26
2023/09/16 15:40:50;;;;;;;7.30;4.90;;;;;;;27.28;48.21;96720.97;6127580;23;20097;-26
2023/09/16 15:56:43;;;;;;;7.43;5.43;;;;;;;27.39;48.62;96729.13;6127392;23;20040;-26
2023/09/16 16:12:35;;;;;;;8.80;5.65;;;;;;;27.43;48.67;96738.69;6127064;23;20392;-26
2023/09/16 16:42:19;;;;;;;8.18;5.60;;;;;;;27.44;48.44;96742.97;6126899;23;20344;-25
2023/09/16 16:58:11;;;;;;;5.50;4.90;;;;;;;27.36;48.68;96742.06;6126679;23;20069;-25
2023/09/16 17:27:30;;;;;;;8.70;5.25;;;;;;;27.36;48.64;96752.47;6125213;23;20456;-26
2023/09/16 17:43:22;;;;;;;7.18;4.97;;;;;;;27.37;48.88;96784.59;6125994;23;20021;-25
2023/09/16 17:45:47;;;;;;;9.43;5.40;;;;;;;27.29;49.71;96787.25;6126399;23;20006;-25
2023/09/16 17:58:18;;;;;;;8.73;5.97;;;;;;;27.27;49.43;96791.84;6126355;23;20016;-25
2023/09/16 18:14:11;;;;;;;8.32;6.10;;;;;;;27.24;48.41;96796.44;6125955;23;20017;-25
2023/09/16 18:44:03;;;;;;;9.35;7.28;;;;;;;26.95;51.66;96837.13;6125852;23;20408;-25
2023/09/16 18:59:55;;;;;;;9.88;8.48;;;;;;;27.04;55.03;96845.09;6125394;23;20025;-26
2023/09/16 19:13:10;;;;;;;9.18;8.27;;;;;;;26.95;56.28;96861.41;6126221;23;20530;-25
2023/09/16 19:29:03;;;;;;;12.75;9.63;;;;;;;26.76;57.75;96880.81;6124587;23;20036;-26
2023/09/16 19:31:28;;;;;;;11.38;9.82;;;;;;;26.89;57.05;96875.34;6125740;23;20013;-26
2023/09/16 19:43:59;;;;;;;12.32;9.57;;;;;;;26.79;57.66;96871.44;6125745;23;20020;-26
2023/09/16 19:59:51;;;;;;;10.88;9.80;;;;;;;26.75;58.23;96851.50;6125362;23;20017;-26
2023/09/16 20:15:43;;;;;;;11.25;9.52;;;;;;;26.69;58.36;96854.34;6127298;23;20021;-26
2023/09/16 20:28:59;;;;;;;11.25;10.00;;;;;;;26.70;58.29;96852.34;6127060;23;20021;-25
2023/09/16 20:46:00;;;;;;;10.10;9.20;;;;;;;26.86;57.45;96839.47;6126922;23;20048;-25
2023/09/16 20:59:20;;;;;;;11.20;10.10;;;;;;;26.62;57.08;96866.06;6126973;23;20017;-25
2023/09/16 21:15:12;;;;;;;9.88;7.82;;;;;;;26.74;54.68;96856.31;6126342;23;20039;-26
2023/09/16 21:31:05;;;;;;;10.68;7.80;;;;;;;26.62;52.95;96856.97;6125234;23;20103;-26
2023/09/16 21:46:57;;;;;;;8.02;6.55;;;;;;;26.88;50.31;96859.19;6126056;23;20073;-26
2023/09/16 22:00:03;;;;;;;9.43;6.55;;;;;;;26.64;47.69;96832.91;6126369;23;20059;-25
2023/09/16 22:15:56;;;;;;;5.30;4.28;;;;;;;26.61;45.30;96850.66;6126110;23;20021;-25
2023/09/16 22:31:49;;;;;;;7.03;4.68;;;;;;;26.36;44.55;96855.47;6124997;23;20024;-26
2023/09/16 23:01:35;;;;;;;8.10;4.80;;;;;;;26.59;45.35;96842.06;6125588;23;20056;-26
2023/09/16 23:17:27;;;;;;;8.68;6.22;;;;;;;26.67;48.67;96850.59;6125819;23;20081;-26
2023/09/16 23:33:19;;;;;;;7.03;6.20;;;;;;;26.28;51.70;96845.47;6125126;23;20097;-26
2023/09/16 23:46:14;;;;;;;10.98;8.85;;;;;;;26.19;54.15;96845.78;6127141;23;20016;-26
